Weather at Kaltenbach Heliport

Public forecast

Using degrees Celsius for public forecast. Weather courtesy of forecast.io.

Closest aviation weather report (METAR) to Kaltenbach Heliport

Closest report is Innsbruck Airport, 21.9 nm (40.5 km) W.

2022/12/03 12:50 (retrieved 34 minutes ago)

LOWI 031250Z VRB02KT 9999 FEW012 SCT090 05/01 Q1014 NOSIG

Closest aviation forecast (TAF) to Kaltenbach Heliport

Closest forecast is Innsbruck Airport, 21.9 nm (40.5 km) W.

2022/12/03 12:24 (retrieved 1 hour ago)

TAF TAF LOWI 031115Z 0312/0412 27007KT 9999 FEW050 SCT100 TX07/0314Z TN02/0404Z